Time;durP1;ratioP1;P1;durP2;ratioP2;P2;SDS_P1;SDS_P2;PMS_P1;PMS_P2;Temp;Humidity;BMP_temperature;BMP_pressure;BME280_temperature;BME280_humidity;BME280_pressure;Samples;Min_cycle;Max_cycle;Signal;HPM_P1;HPM_P2
2023/04/29 00:00:20;;;;;;;7.07;6.47;;;;;;;;;;5003236;28;20037;-68
2023/04/29 00:02:45;;;;;;;7.22;6.53;;;;;;;;;;4997960;28;20427;-70
2023/04/29 00:05:11;;;;;;;7.07;6.57;;;;;;;;;;4999093;28;20026;-68
2023/04/29 00:07:37;;;;;;;7.57;6.88;;;;;;;;;;4988465;28;20044;-68
2023/04/29 00:10:03;;;;;;;6.45;6.00;;;;;;;;;;5005249;28;20037;-68
2023/04/29 00:12:32;;;;;;;7.18;6.65;;;;;;;;;;4998511;28;20043;-70
2023/04/29 00:14:58;;;;;;;7.13;6.53;;;;;;;;;;5001405;28;20042;-68
2023/04/29 00:17:24;;;;;;;5.82;5.43;;;;;;;;;;5004962;28;20069;-69
2023/04/29 00:19:49;;;;;;;6.95;6.50;;;;;;;;;;5001483;28;21644;-68
2023/04/29 00:22:15;;;;;;;6.68;6.18;;;;;;;;;;5001379;28;20079;-68
2023/04/29 00:24:40;;;;;;;7.57;6.72;;;;;;;;;;5002479;28;20034;-68
2023/04/29 00:27:06;;;;;;;7.03;6.45;;;;;;;;;;5006308;28;20057;-68
2023/04/29 00:29:31;;;;;;;6.70;6.05;;;;;;;;;;4993862;28;20049;-69
2023/04/29 00:31:57;;;;;;;6.85;6.25;;;;;;;;;;4982166;28;20036;-68
2023/04/29 00:34:23;;;;;;;6.97;6.38;;;;;;;;;;4998454;28;20037;-68
2023/04/29 00:36:49;;;;;;;6.32;5.93;;;;;;;;;;4986884;28;20038;-69
2023/04/29 00:39:16;;;;;;;7.05;6.35;;;;;;;;;;4982314;28;20034;-68
2023/04/29 00:41:42;;;;;;;7.20;5.95;;;;;;;;;;4985431;28;20022;-68
2023/04/29 00:44:09;;;;;;;6.10;5.68;;;;;;;;;;4997547;28;20072;-68
2023/04/29 00:46:34;;;;;;;6.90;6.30;;;;;;;;;;4979019;28;20172;-68
2023/04/29 00:49:00;;;;;;;6.40;5.85;;;;;;;;;;4996892;28;20038;-68
2023/04/29 00:51:27;;;;;;;6.88;6.30;;;;;;;;;;5003388;28;20042;-69
2023/04/29 00:53:53;;;;;;;6.80;6.20;;;;;;;;;;5005416;28;20038;-68
2023/04/29 00:56:19;;;;;;;6.65;6.18;;;;;;;;;;4985937;28;20045;-69
2023/04/29 00:58:48;;;;;;;7.68;7.03;;;;;;;;;;4964142;28;20760;-69
2023/04/29 01:01:18;;;;;;;7.35;6.65;;;;;;;;;;5002658;28;20040;-68
2023/04/29 01:03:44;;;;;;;7.25;6.65;;;;;;;;;;4964355;28;20543;-69
2023/04/29 01:06:49;;;;;;;6.97;6.32;;;;;;;;;;4983231;28;20058;-69
2023/04/29 01:09:42;;;;;;;7.50;6.90;;;;;;;;;;4943068;28;20046;-68
2023/04/29 01:12:25;;;;;;;7.32;5.72;;;;;;;;;;4941876;28;20113;-68
2023/04/29 01:15:08;;;;;;;6.47;6.07;;;;;;;;;;4952662;28;20039;-68
2023/04/29 01:17:40;;;;;;;6.63;6.03;;;;;;;;;;4957002;28;20395;-69
2023/04/29 01:20:09;;;;;;;6.90;6.28;;;;;;;;;;4955055;28;20059;-69
2023/04/29 01:22:36;;;;;;;6.53;6.03;;;;;;;;;;4939893;28;20037;-68
2023/04/29 01:25:01;;;;;;;6.63;6.15;;;;;;;;;;4934669;28;20102;-68
2023/04/29 01:27:56;;;;;;;6.55;6.05;;;;;;;;;;4958872;28;20645;-69
2023/04/29 01:30:44;;;;;;;7.00;6.43;;;;;;;;;;4938178;28;20126;-68
2023/04/29 01:33:20;;;;;;;8.27;6.45;;;;;;;;;;4934962;28;20113;-69
2023/04/29 01:36:16;;;;;;;7.15;6.55;;;;;;;;;;4954774;28;20151;-68
2023/04/29 01:39:04;;;;;;;7.03;6.53;;;;;;;;;;4955252;28;20042;-68
2023/04/29 01:41:35;;;;;;;6.20;5.80;;;;;;;;;;5007418;28;20035;-68
2023/04/29 01:44:15;;;;;;;6.68;6.25;;;;;;;;;;4982225;28;20515;-68
2023/04/29 01:46:46;;;;;;;5.85;5.45;;;;;;;;;;4996831;28;20156;-69
2023/04/29 01:49:11;;;;;;;7.03;6.43;;;;;;;;;;5000909;28;20040;-69
2023/04/29 01:51:39;;;;;;;7.10;6.53;;;;;;;;;;4977992;28;20069;-69
2023/04/29 01:54:05;;;;;;;7.00;6.43;;;;;;;;;;4983806;28;20064;-70
2023/04/29 01:56:31;;;;;;;6.32;5.90;;;;;;;;;;4982412;28;20037;-68
2023/04/29 01:59:01;;;;;;;7.13;6.47;;;;;;;;;;5001178;28;20029;-68
2023/04/29 02:01:51;;;;;;;6.13;5.72;;;;;;;;;;4985920;28;20026;-68
2023/04/29 02:04:18;;;;;;;7.90;7.30;;;;;;;;;;4984777;28;20065;-70
2023/04/29 02:06:43;;;;;;;7.05;6.45;;;;;;;;;;4998863;28;20480;-70
2023/04/29 02:09:09;;;;;;;7.13;6.53;;;;;;;;;;4972683;28;20061;-68
2023/04/29 02:11:35;;;;;;;7.20;6.70;;;;;;;;;;4979741;28;20034;-68
2023/04/29 02:14:01;;;;;;;6.57;6.07;;;;;;;;;;5003820;28;20842;-68
2023/04/29 02:16:27;;;;;;;6.70;6.10;;;;;;;;;;4976252;28;20042;-69
2023/04/29 02:18:59;;;;;;;6.32;5.93;;;;;;;;;;4981112;28;20140;-69
2023/04/29 02:21:26;;;;;;;7.28;6.68;;;;;;;;;;4987928;28;20034;-68
2023/04/29 02:23:53;;;;;;;6.43;5.93;;;;;;;;;;4979717;28;20481;-67
2023/04/29 02:26:22;;;;;;;6.65;6.10;;;;;;;;;;4976222;28;20022;-69
2023/04/29 02:28:48;;;;;;;6.53;6.03;;;;;;;;;;4974341;28;20041;-68
2023/04/29 02:31:13;;;;;;;6.70;6.20;;;;;;;;;;4998893;28;20032;-69
2023/04/29 02:33:43;;;;;;;10.40;6.47;;;;;;;;;;4997563;28;20109;-70
2023/04/29 02:36:09;;;;;;;6.68;6.18;;;;;;;;;;4976857;28;20133;-70
2023/04/29 02:38:34;;;;;;;6.88;6.35;;;;;;;;;;4975877;28;20030;-68
2023/04/29 02:41:00;;;;;;;6.30;5.90;;;;;;;;;;4979527;28;20042;-68
2023/04/29 02:43:29;;;;;;;8.15;6.55;;;;;;;;;;4983321;28;20053;-68
2023/04/29 02:45:55;;;;;;;6.57;6.07;;;;;;;;;;4989952;28;20132;-69
2023/04/29 02:48:21;;;;;;;6.70;6.22;;;;;;;;;;4994644;28;20113;-68
2023/04/29 02:50:46;;;;;;;6.50;6.00;;;;;;;;;;4995624;28;20053;-68
2023/04/29 02:53:12;;;;;;;6.72;6.18;;;;;;;;;;4980738;28;20046;-70
2023/04/29 02:55:38;;;;;;;6.30;5.90;;;;;;;;;;4994414;28;20034;-68
2023/04/29 02:58:08;;;;;;;6.35;5.95;;;;;;;;;;4980268;28;20034;-68
2023/04/29 03:00:34;;;;;;;6.53;6.13;;;;;;;;;;5009319;28;20420;-68
2023/04/29 03:03:00;;;;;;;6.50;5.97;;;;;;;;;;4984961;28;20033;-69
2023/04/29 03:05:26;;;;;;;6.93;6.45;;;;;;;;;;4978733;28;20038;-69
2023/04/29 03:07:52;;;;;;;6.38;5.97;;;;;;;;;;4972990;28;20036;-68
2023/04/29 03:10:18;;;;;;;6.30;5.90;;;;;;;;;;4966588;28;20101;-69
2023/04/29 03:12:44;;;;;;;6.60;6.10;;;;;;;;;;4976452;28;20034;-69
2023/04/29 03:15:10;;;;;;;7.03;6.40;;;;;;;;;;4985665;28;20496;-68
2023/04/29 03:17:36;;;;;;;6.45;6.00;;;;;;;;;;4992450;28;20049;-68
2023/04/29 03:20:03;;;;;;;6.32;5.72;;;;;;;;;;5001541;28;20034;-67
2023/04/29 03:22:28;;;;;;;6.95;6.45;;;;;;;;;;4985476;28;20050;-69
2023/04/29 03:24:54;;;;;;;6.65;6.05;;;;;;;;;;4962012;28;20046;-68
2023/04/29 03:27:21;;;;;;;7.35;6.75;;;;;;;;;;4979021;28;20061;-69
2023/04/29 03:29:48;;;;;;;6.75;6.25;;;;;;;;;;4984338;28;20101;-68
2023/04/29 03:32:14;;;;;;;6.70;6.20;;;;;;;;;;4980354;28;20034;-68
2023/04/29 03:34:40;;;;;;;6.97;6.47;;;;;;;;;;4983255;28;20080;-68
2023/04/29 03:37:25;;;;;;;8.55;6.68;;;;;;;;;;4993562;28;20045;-70
2023/04/29 03:39:59;;;;;;;6.47;5.97;;;;;;;;;;5003197;28;20069;-68
2023/04/29 03:42:25;;;;;;;7.47;6.88;;;;;;;;;;5002693;28;20053;-67
2023/04/29 03:44:50;;;;;;;6.80;6.30;;;;;;;;;;5003395;28;20091;-68
2023/04/29 03:47:16;;;;;;;13.15;6.95;;;;;;;;;;4986166;28;20393;-69
2023/04/29 03:49:42;;;;;;;7.07;6.53;;;;;;;;;;4978854;28;20030;-68
2023/04/29 03:52:08;;;;;;;6.97;6.47;;;;;;;;;;4998519;28;20647;-70
2023/04/29 03:54:34;;;;;;;6.80;6.30;;;;;;;;;;4987741;28;20117;-67
2023/04/29 03:57:01;;;;;;;7.00;6.50;;;;;;;;;;4985410;28;20084;-69
2023/04/29 03:59:26;;;;;;;7.45;6.60;;;;;;;;;;4983227;28;20479;-69
2023/04/29 04:01:55;;;;;;;7.50;6.97;;;;;;;;;;5001482;28;20505;-70
2023/04/29 04:04:20;;;;;;;16.35;6.97;;;;;;;;;;4984886;28;20057;-68
2023/04/29 04:06:50;;;;;;;12.77;6.35;;;;;;;;;;4984204;28;20049;-69
2023/04/29 04:09:17;;;;;;;6.05;5.60;;;;;;;;;;5001224;28;20164;-69
2023/04/29 04:11:44;;;;;;;5.90;5.50;;;;;;;;;;4976192;28;20034;-69
2023/04/29 04:14:09;;;;;;;9.57;6.63;;;;;;;;;;4985964;28;20083;-69
2023/04/29 04:16:35;;;;;;;6.43;5.95;;;;;;;;;;5001727;28;20109;-70
2023/04/29 04:19:01;;;;;;;6.88;6.28;;;;;;;;;;4999104;28;20042;-70
2023/04/29 04:21:29;;;;;;;7.15;6.55;;;;;;;;;;5002817;28;20037;-68
2023/04/29 04:24:00;;;;;;;6.93;6.38;;;;;;;;;;4983394;28;20512;-70
2023/04/29 04:26:28;;;;;;;7.30;6.70;;;;;;;;;;5006016;28;20113;-69
2023/04/29 04:29:12;;;;;;;6.72;6.20;;;;;;;;;;5000381;28;20045;-68
2023/04/29 04:31:45;;;;;;;6.97;6.47;;;;;;;;;;4974648;28;20030;-68
2023/04/29 04:34:11;;;;;;;8.45;7.05;;;;;;;;;;4982199;28;20034;-68
2023/04/29 04:36:36;;;;;;;6.45;6.00;;;;;;;;;;4978682;28;20169;-69
2023/04/29 04:39:02;;;;;;;7.45;6.85;;;;;;;;;;4986327;28;20116;-69
2023/04/29 04:41:30;;;;;;;22.08;7.68;;;;;;;;;;4983968;28;20049;-68
2023/04/29 04:43:56;;;;;;;38.03;8.70;;;;;;;;;;4985983;28;20045;-68
2023/04/29 04:46:34;;;;;;;31.55;6.82;;;;;;;;;;4980654;28;20050;-68
2023/04/29 04:49:08;;;;;;;6.53;6.03;;;;;;;;;;4976916;28;20641;-68
2023/04/29 04:51:43;;;;;;;8.05;7.35;;;;;;;;;;4978312;28;20045;-68
2023/04/29 04:54:09;;;;;;;8.57;7.75;;;;;;;;;;4980985;28;20084;-67
2023/04/29 04:56:36;;;;;;;9.40;8.40;;;;;;;;;;4982348;28;20033;-68
2023/04/29 04:59:03;;;;;;;10.85;9.02;;;;;;;;;;4980912;28;20091;-68
2023/04/29 05:01:29;;;;;;;10.57;9.45;;;;;;;;;;4979194;28;20045;-67
2023/04/29 05:03:55;;;;;;;14.35;10.82;;;;;;;;;;4993140;28;20026;-67
2023/04/29 05:06:21;;;;;;;11.65;8.77;;;;;;;;;;5002873;28;20061;-69
2023/04/29 05:08:48;;;;;;;9.00;8.10;;;;;;;;;;4983659;28;20049;-68
2023/04/29 05:11:19;;;;;;;7.50;6.90;;;;;;;;;;4989379;28;20536;-68
2023/04/29 05:13:51;;;;;;;28.20;8.27;;;;;;;;;;4977815;28;20080;-69
2023/04/29 05:16:18;;;;;;;27.42;9.18;;;;;;;;;;4986978;28;20037;-68
2023/04/29 05:18:46;;;;;;;34.83;7.30;;;;;;;;;;4982389;28;20096;-70
2023/04/29 05:21:12;;;;;;;47.22;7.93;;;;;;;;;;4983026;28;20041;-68
2023/04/29 05:23:38;;;;;;;53.65;7.25;;;;;;;;;;4981122;28;20042;-69
2023/04/29 05:26:03;;;;;;;8.88;7.22;;;;;;;;;;4986657;28;20026;-69
2023/04/29 05:28:29;;;;;;;13.68;7.50;;;;;;;;;;4983991;28;20050;-68
2023/04/29 05:30:56;;;;;;;6.85;6.35;;;;;;;;;;4982570;28;20049;-67
2023/04/29 05:33:21;;;;;;;7.07;6.43;;;;;;;;;;4997545;28;20050;-69
2023/04/29 05:35:47;;;;;;;6.68;6.18;;;;;;;;;;4980952;28;20046;-69
2023/04/29 05:38:13;;;;;;;7.28;6.78;;;;;;;;;;4999712;28;20486;-69
2023/04/29 05:40:40;;;;;;;7.28;6.68;;;;;;;;;;4981709;28;20041;-70
2023/04/29 05:43:20;;;;;;;8.23;7.43;;;;;;;;;;4981147;28;20102;-69
2023/04/29 05:45:46;;;;;;;8.07;7.38;;;;;;;;;;4982424;28;20704;-69
2023/04/29 05:48:12;;;;;;;8.65;7.85;;;;;;;;;;4986315;28;20045;-70
2023/04/29 05:50:37;;;;;;;8.07;7.38;;;;;;;;;;4982440;28;20063;-69
2023/04/29 05:53:03;;;;;;;9.23;8.32;;;;;;;;;;4984303;28;20125;-68
2023/04/29 05:55:29;;;;;;;8.68;7.95;;;;;;;;;;4980350;28;20069;-69
2023/04/29 05:57:55;;;;;;;10.00;9.10;;;;;;;;;;4982469;28;20034;-69
2023/04/29 06:00:22;;;;;;;9.50;8.60;;;;;;;;;;4985423;28;21003;-68
2023/04/29 06:02:48;;;;;;;9.13;8.13;;;;;;;;;;4995822;28;20046;-69
2023/04/29 06:05:15;;;;;;;9.25;8.45;;;;;;;;;;4982419;28;20113;-68
2023/04/29 06:08:03;;;;;;;9.15;8.32;;;;;;;;;;4940742;28;20053;-68
2023/04/29 06:10:43;;;;;;;9.52;8.18;;;;;;;;;;4994895;28;20041;-69
2023/04/29 06:13:09;;;;;;;8.77;7.97;;;;;;;;;;4996205;28;20037;-70
2023/04/29 06:15:35;;;;;;;8.65;7.88;;;;;;;;;;4979394;28;20041;-70
2023/04/29 06:18:01;;;;;;;8.40;7.68;;;;;;;;;;4996422;28;20037;-69
2023/04/29 06:20:26;;;;;;;9.05;8.15;;;;;;;;;;4982456;28;20030;-69
2023/04/29 06:22:52;;;;;;;8.88;8.00;;;;;;;;;;4981414;28;20062;-68
2023/04/29 06:25:18;;;;;;;7.95;7.25;;;;;;;;;;4974782;28;20049;-68
2023/04/29 06:27:46;;;;;;;8.20;7.43;;;;;;;;;;4987547;28;20045;-68
2023/04/29 06:30:12;;;;;;;7.68;7.18;;;;;;;;;;4981208;28;20033;-68
2023/04/29 06:32:39;;;;;;;7.00;6.50;;;;;;;;;;4977880;28;20064;-68
2023/04/29 06:35:06;;;;;;;7.60;7.00;;;;;;;;;;4978984;28;20057;-68
2023/04/29 06:37:55;;;;;;;6.60;6.20;;;;;;;;;;4971510;28;20046;-68
2023/04/29 06:40:39;;;;;;;6.25;5.75;;;;;;;;;;5001118;28;20040;-68
2023/04/29 06:43:25;;;;;;;6.40;5.90;;;;;;;;;;5003044;28;20103;-69
2023/04/29 06:46:16;;;;;;;6.90;6.30;;;;;;;;;;5003512;28;20627;-70
2023/04/29 06:49:07;;;;;;;6.72;6.13;;;;;;;;;;4998777;28;20042;-68
2023/04/29 06:51:34;;;;;;;6.72;6.22;;;;;;;;;;4980457;28;20520;-67
2023/04/29 06:54:00;;;;;;;7.40;6.80;;;;;;;;;;4977701;28;20056;-68
2023/04/29 06:56:26;;;;;;;6.07;5.68;;;;;;;;;;4998455;28;20501;-70
2023/04/29 06:58:51;;;;;;;6.40;5.90;;;;;;;;;;5000196;28;20570;-67
2023/04/29 07:01:17;;;;;;;6.65;6.18;;;;;;;;;;4978712;28;20038;-68
2023/04/29 07:03:43;;;;;;;6.07;5.60;;;;;;;;;;4985136;28;20069;-68
2023/04/29 07:06:08;;;;;;;6.30;5.85;;;;;;;;;;4999099;28;20740;-69
2023/04/29 07:08:34;;;;;;;6.30;5.78;;;;;;;;;;4978559;28;20048;-69
2023/04/29 07:10:59;;;;;;;6.63;6.03;;;;;;;;;;4980283;28;20041;-67
2023/04/29 07:13:25;;;;;;;6.65;6.15;;;;;;;;;;5004776;28;20038;-69
2023/04/29 07:15:51;;;;;;;7.00;6.45;;;;;;;;;;4996950;28;20026;-69
2023/04/29 07:18:16;;;;;;;6.00;5.60;;;;;;;;;;5005666;28;20537;-68
2023/04/29 07:20:43;;;;;;;5.75;5.35;;;;;;;;;;4982921;28;20038;-67
2023/04/29 07:23:09;;;;;;;5.85;5.45;;;;;;;;;;4988320;28;20037;-68
2023/04/29 07:25:34;;;;;;;5.60;5.10;;;;;;;;;;5002570;28;20042;-69
2023/04/29 07:28:01;;;;;;;5.53;5.13;;;;;;;;;;4985946;28;20054;-69
2023/04/29 07:30:27;;;;;;;5.25;4.85;;;;;;;;;;4992323;28;20065;-68
2023/04/29 07:32:52;;;;;;;5.75;5.18;;;;;;;;;;4986330;28;20093;-68
2023/04/29 07:35:19;;;;;;;5.78;5.28;;;;;;;;;;4981436;28;20605;-69
2023/04/29 07:37:45;;;;;;;6.07;5.63;;;;;;;;;;4986696;28;20034;-68
2023/04/29 07:40:11;;;;;;;5.72;5.32;;;;;;;;;;4987047;28;20105;-68
2023/04/29 07:42:37;;;;;;;5.25;4.93;;;;;;;;;;4983820;28;20033;-67
2023/04/29 07:45:05;;;;;;;5.50;5.10;;;;;;;;;;4983125;28;20048;-68
2023/04/29 07:47:31;;;;;;;5.40;5.05;;;;;;;;;;4985549;28;20149;-68
2023/04/29 07:49:56;;;;;;;5.68;5.00;;;;;;;;;;4995978;28;20046;-67
2023/04/29 07:52:22;;;;;;;5.70;5.30;;;;;;;;;;5005660;28;20037;-68
2023/04/29 07:54:48;;;;;;;5.78;5.28;;;;;;;;;;4999533;28;20065;-67
2023/04/29 07:57:14;;;;;;;4.63;4.30;;;;;;;;;;4979810;28;20113;-68
2023/04/29 07:59:40;;;;;;;16.00;4.85;;;;;;;;;;4981800;28;20037;-68
2023/04/29 08:02:05;;;;;;;4.90;4.60;;;;;;;;;;4977269;28;20565;-67
2023/04/29 08:04:31;;;;;;;4.47;4.13;;;;;;;;;;4984851;28;20042;-68
2023/04/29 08:07:03;;;;;;;5.40;5.00;;;;;;;;;;4979692;28;20041;-69
2023/04/29 08:09:28;;;;;;;4.30;4.00;;;;;;;;;;4978761;28;20736;-67
2023/04/29 08:11:54;;;;;;;4.68;4.38;;;;;;;;;;5003296;28;20046;-67
2023/04/29 08:14:19;;;;;;;4.32;4.03;;;;;;;;;;4988432;28;20030;-68
2023/04/29 08:16:45;;;;;;;5.80;4.15;;;;;;;;;;4985121;28;20068;-67
2023/04/29 08:19:11;;;;;;;4.65;4.30;;;;;;;;;;5002464;28;20025;-68
2023/04/29 08:21:36;;;;;;;4.65;4.35;;;;;;;;;;4984827;28;20034;-67
2023/04/29 08:24:02;;;;;;;4.78;4.38;;;;;;;;;;5001218;28;20038;-68
2023/04/29 08:26:28;;;;;;;4.68;4.38;;;;;;;;;;4998026;28;20049;-68
2023/04/29 08:28:53;;;;;;;6.20;4.47;;;;;;;;;;5002416;28;20037;-67
2023/04/29 08:31:20;;;;;;;4.88;4.57;;;;;;;;;;5005545;28;20084;-67
2023/04/29 08:33:47;;;;;;;4.22;4.03;;;;;;;;;;5002645;28;20041;-68
2023/04/29 08:36:13;;;;;;;4.18;3.97;;;;;;;;;;5002868;28;20033;-67
2023/04/29 08:38:39;;;;;;;4.68;4.38;;;;;;;;;;5003809;28;20061;-67
2023/04/29 08:41:11;;;;;;;4.50;4.20;;;;;;;;;;5006058;28;20398;-68
2023/04/29 08:43:36;;;;;;;4.72;4.43;;;;;;;;;;4975657;28;20031;-68
2023/04/29 08:46:03;;;;;;;4.70;4.40;;;;;;;;;;4999298;28;20037;-68
2023/04/29 08:48:29;;;;;;;4.90;4.57;;;;;;;;;;5005424;28;20033;-67
2023/04/29 08:50:57;;;;;;;4.70;4.30;;;;;;;;;;4999412;28;20041;-68
2023/04/29 08:53:23;;;;;;;4.70;4.35;;;;;;;;;;4995951;28;20529;-69
2023/04/29 08:55:49;;;;;;;4.57;4.28;;;;;;;;;;5001714;28;20073;-68
2023/04/29 08:58:15;;;;;;;4.68;4.38;;;;;;;;;;5000066;28;20061;-68
2023/04/29 09:00:42;;;;;;;4.45;4.20;;;;;;;;;;4997703;28;20038;-67
2023/04/29 09:03:21;;;;;;;4.15;3.95;;;;;;;;;;4997468;28;20102;-68
2023/04/29 09:05:49;;;;;;;4.32;4.10;;;;;;;;;;4998336;28;20780;-69
2023/04/29 09:08:15;;;;;;;4.82;4.40;;;;;;;;;;4999393;28;20040;-67
2023/04/29 09:10:41;;;;;;;4.53;4.22;;;;;;;;;;5000727;28;20053;-67
2023/04/29 09:13:07;;;;;;;4.57;4.20;;;;;;;;;;4997120;28;20026;-68
2023/04/29 09:15:39;;;;;;;4.80;4.50;;;;;;;;;;4998520;28;20050;-68
2023/04/29 09:18:04;;;;;;;5.00;4.60;;;;;;;;;;5001424;28;20079;-69
2023/04/29 09:20:31;;;;;;;5.00;4.60;;;;;;;;;;4998975;28;20041;-68
2023/04/29 09:23:02;;;;;;;5.05;4.65;;;;;;;;;;4999772;28;20022;-68
2023/04/29 09:25:30;;;;;;;4.90;4.50;;;;;;;;;;5001478;28;20049;-68
2023/04/29 09:27:55;;;;;;;4.93;4.63;;;;;;;;;;5001454;28;20038;-67
2023/04/29 09:30:22;;;;;;;5.15;4.75;;;;;;;;;;4999855;28;20030;-67
2023/04/29 09:33:04;;;;;;;5.75;5.38;;;;;;;;;;5002590;28;20030;-67
2023/04/29 09:35:31;;;;;;;6.00;5.57;;;;;;;;;;4981287;28;20042;-68
2023/04/29 09:38:13;;;;;;;4.78;4.55;;;;;;;;;;4991933;28;20398;-68
2023/04/29 09:40:41;;;;;;;4.55;4.30;;;;;;;;;;4995541;28;20100;-68
2023/04/29 09:43:15;;;;;;;4.95;4.65;;;;;;;;;;4991440;28;20038;-69
2023/04/29 09:45:43;;;;;;;5.20;4.80;;;;;;;;;;5001954;28;20041;-68
2023/04/29 09:48:10;;;;;;;4.78;4.47;;;;;;;;;;4998457;28;20449;-67
2023/04/29 09:50:41;;;;;;;4.38;4.10;;;;;;;;;;5001444;28;20038;-68
2023/04/29 09:53:09;;;;;;;5.85;5.15;;;;;;;;;;4998569;28;20039;-69
2023/04/29 09:55:59;;;;;;;4.90;4.60;;;;;;;;;;4986801;28;20034;-69
2023/04/29 09:58:36;;;;;;;4.97;4.55;;;;;;;;;;4993357;28;20041;-69
2023/04/29 10:01:02;;;;;;;4.88;4.57;;;;;;;;;;5001714;28;20092;-68
2023/04/29 10:03:41;;;;;;;5.15;4.65;;;;;;;;;;5000124;28;20066;-68
2023/04/29 10:06:07;;;;;;;4.95;4.65;;;;;;;;;;4991145;28;20045;-68
2023/04/29 10:08:33;;;;;;;5.07;4.55;;;;;;;;;;4998591;28;20088;-69
2023/04/29 10:11:03;;;;;;;4.85;4.55;;;;;;;;;;4997624;28;20068;-70
2023/04/29 10:13:29;;;;;;;4.55;4.25;;;;;;;;;;4991879;28;20034;-68
2023/04/29 10:16:28;;;;;;;4.55;4.25;;;;;;;;;;4998139;28;20034;-69
2023/04/29 10:18:58;;;;;;;4.63;4.32;;;;;;;;;;4989775;28;20038;-68
2023/04/29 10:21:30;;;;;;;4.30;4.00;;;;;;;;;;4995421;28;20041;-68
2023/04/29 10:24:00;;;;;;;4.28;4.00;;;;;;;;;;4997212;28;20079;-68
2023/04/29 10:26:28;;;;;;;4.32;4.03;;;;;;;;;;4994752;28;20034;-69
2023/04/29 10:28:58;;;;;;;4.85;4.18;;;;;;;;;;4986665;28;20038;-67
2023/04/29 10:31:25;;;;;;;7.13;4.40;;;;;;;;;;4994957;28;20446;-69
2023/04/29 10:33:54;;;;;;;5.20;4.80;;;;;;;;;;4993997;28;20045;-69
2023/04/29 10:36:21;;;;;;;5.03;4.68;;;;;;;;;;4996268;28;20037;-68
2023/04/29 10:38:51;;;;;;;4.35;4.13;;;;;;;;;;4999631;28;20041;-70
2023/04/29 10:41:24;;;;;;;3.90;3.70;;;;;;;;;;4998195;28;20065;-68
2023/04/29 10:43:54;;;;;;;4.55;4.25;;;;;;;;;;4998438;28;21433;-68
2023/04/29 10:46:25;;;;;;;3.90;3.70;;;;;;;;;;5001576;28;20092;-70
2023/04/29 10:48:56;;;;;;;4.03;3.78;;;;;;;;;;4995100;28;20046;-69
2023/04/29 10:51:42;;;;;;;4.15;3.85;;;;;;;;;;4993973;28;20030;-69
2023/04/29 10:54:15;;;;;;;4.15;3.95;;;;;;;;;;4999021;28;20038;-68
2023/04/29 10:56:43;;;;;;;7.75;3.67;;;;;;;;;;4999260;28;20038;-70
2023/04/29 10:59:19;;;;;;;4.28;3.97;;;;;;;;;;5000929;28;20068;-69
2023/04/29 11:01:50;;;;;;;6.10;3.65;;;;;;;;;;4999238;28;20068;-69
2023/04/29 11:04:17;;;;;;;5.72;3.75;;;;;;;;;;5000088;28;20038;-70
2023/04/29 11:06:51;;;;;;;4.25;3.97;;;;;;;;;;4995265;28;20044;-70
2023/04/29 11:09:22;;;;;;;4.05;3.75;;;;;;;;;;4995520;28;20045;-68
2023/04/29 11:11:59;;;;;;;4.53;4.22;;;;;;;;;;5000430;28;20033;-67
2023/04/29 11:14:37;;;;;;;4.35;4.13;;;;;;;;;;5002003;28;20167;-68
2023/04/29 11:17:12;;;;;;;4.60;4.35;;;;;;;;;;4997534;28;20037;-68
2023/04/29 11:19:45;;;;;;;4.72;4.43;;;;;;;;;;4999444;28;20511;-69
2023/04/29 11:22:11;;;;;;;4.55;4.18;;;;;;;;;;5002144;28;20030;-68
2023/04/29 11:24:49;;;;;;;4.70;4.30;;;;;;;;;;4999980;28;20038;-70
2023/04/29 11:27:17;;;;;;;4.83;4.43;;;;;;;;;;5002005;28;20036;-68
2023/04/29 11:29:46;;;;;;;4.20;3.90;;;;;;;;;;5000814;28;20409;-69
2023/04/29 11:32:12;;;;;;;4.18;3.97;;;;;;;;;;5004559;28;20457;-72
2023/04/29 11:34:38;;;;;;;4.90;4.60;;;;;;;;;;4997169;28;20064;-71
2023/04/29 11:37:04;;;;;;;4.72;4.50;;;;;;;;;;4996232;28;20109;-69
2023/04/29 11:39:34;;;;;;;4.38;4.13;;;;;;;;;;5001627;28;20121;-71
2023/04/29 11:42:04;;;;;;;4.85;4.35;;;;;;;;;;4999021;28;20460;-70
2023/04/29 11:44:30;;;;;;;4.30;4.10;;;;;;;;;;4995166;28;20034;-71
2023/04/29 11:47:03;;;;;;;4.28;3.97;;;;;;;;;;4998455;28;20500;-68
2023/04/29 11:49:30;;;;;;;4.50;4.18;;;;;;;;;;5000869;28;20492;-70
2023/04/29 11:51:56;;;;;;;4.70;4.40;;;;;;;;;;4997853;28;20453;-70
2023/04/29 11:54:24;;;;;;;4.50;4.20;;;;;;;;;;4999090;28;20535;-72
2023/04/29 11:56:57;;;;;;;4.22;3.92;;;;;;;;;;4997730;28;20065;-69
2023/04/29 11:59:23;;;;;;;5.68;4.47;;;;;;;;;;4989880;28;20117;-68
2023/04/29 12:01:49;;;;;;;4.35;4.05;;;;;;;;;;4996883;28;20125;-68
2023/04/29 12:04:16;;;;;;;4.00;3.80;;;;;;;;;;5001441;28;20037;-70
2023/04/29 12:06:41;;;;;;;4.20;3.90;;;;;;;;;;4997149;28;20033;-69
2023/04/29 12:09:07;;;;;;;4.60;4.30;;;;;;;;;;4999644;28;20065;-68
2023/04/29 12:11:34;;;;;;;4.65;4.35;;;;;;;;;;5000553;28;20812;-69
2023/04/29 12:14:02;;;;;;;5.25;4.85;;;;;;;;;;4993746;28;20046;-68
2023/04/29 12:16:29;;;;;;;4.93;4.53;;;;;;;;;;4998565;28;20690;-68
2023/04/29 12:18:55;;;;;;;5.28;4.75;;;;;;;;;;4958374;28;20096;-69
2023/04/29 12:21:21;;;;;;;4.50;4.22;;;;;;;;;;4997664;28;20033;-67
2023/04/29 12:23:47;;;;;;;4.75;4.45;;;;;;;;;;4997952;28;20049;-69
2023/04/29 12:26:13;;;;;;;4.47;4.18;;;;;;;;;;5000503;28;20825;-69
2023/04/29 12:28:41;;;;;;;5.18;4.85;;;;;;;;;;4996866;28;20441;-68
2023/04/29 12:31:09;;;;;;;4.88;4.57;;;;;;;;;;4993862;28;20038;-69
2023/04/29 12:33:34;;;;;;;5.40;5.00;;;;;;;;;;4998908;28;20112;-68
2023/04/29 12:36:01;;;;;;;5.65;5.25;;;;;;;;;;4998655;28;20030;-68
2023/04/29 12:38:29;;;;;;;5.72;5.30;;;;;;;;;;4995620;28;20026;-69
2023/04/29 12:41:00;;;;;;;5.70;5.30;;;;;;;;;;4999379;28;20076;-69
2023/04/29 12:43:27;;;;;;;5.53;5.13;;;;;;;;;;4998539;28;20141;-69
2023/04/29 12:46:03;;;;;;;5.45;5.05;;;;;;;;;;4983214;28;20061;-69
2023/04/29 12:48:32;;;;;;;5.97;5.57;;;;;;;;;;4997302;28;20089;-68
2023/04/29 12:51:00;;;;;;;5.20;4.80;;;;;;;;;;4980698;28;20041;-68
2023/04/29 12:53:28;;;;;;;5.22;4.80;;;;;;;;;;4995200;28;20405;-69
2023/04/29 12:55:54;;;;;;;7.23;5.33;;;;;;;;;;4999124;28;20038;-69
2023/04/29 12:58:20;;;;;;;4.90;4.60;;;;;;;;;;4997587;28;20046;-67
2023/04/29 13:00:46;;;;;;;5.28;4.88;;;;;;;;;;4980177;28;20394;-67
2023/04/29 13:03:11;;;;;;;5.53;5.13;;;;;;;;;;4997503;28;20045;-67
2023/04/29 13:05:37;;;;;;;5.15;4.75;;;;;;;;;;4997065;28;20034;-68
2023/04/29 13:08:06;;;;;;;5.47;5.05;;;;;;;;;;5000520;28;20045;-68
2023/04/29 13:10:32;;;;;;;6.05;5.55;;;;;;;;;;4996737;28;20096;-68
2023/04/29 13:12:58;;;;;;;4.70;4.40;;;;;;;;;;4993638;28;20026;-69
2023/04/29 13:15:25;;;;;;;8.35;4.70;;;;;;;;;;4999307;28;20042;-71
2023/04/29 13:17:51;;;;;;;5.22;4.72;;;;;;;;;;4993821;28;20511;-66
2023/04/29 13:20:16;;;;;;;5.45;5.05;;;;;;;;;;5002151;28;20033;-70
2023/04/29 13:22:43;;;;;;;5.20;4.80;;;;;;;;;;4996309;28;20084;-71
2023/04/29 13:25:12;;;;;;;5.72;5.05;;;;;;;;;;4996017;28;20033;-70
2023/04/29 13:27:38;;;;;;;5.55;5.00;;;;;;;;;;4998214;28;20121;-70
2023/04/29 13:30:05;;;;;;;6.00;5.50;;;;;;;;;;5001073;28;20117;-70
2023/04/29 13:32:31;;;;;;;5.85;5.45;;;;;;;;;;5000320;28;20038;-70
2023/04/29 13:34:56;;;;;;;5.18;4.78;;;;;;;;;;5001155;28;20040;-70
2023/04/29 13:37:22;;;;;;;5.70;5.20;;;;;;;;;;4988788;28;20030;-69
2023/04/29 13:39:47;;;;;;;5.47;5.07;;;;;;;;;;5001922;28;20041;-70
2023/04/29 13:42:13;;;;;;;6.90;6.20;;;;;;;;;;4999903;28;20092;-69
2023/04/29 13:44:42;;;;;;;5.68;5.28;;;;;;;;;;4999168;28;20108;-70
2023/04/29 13:47:10;;;;;;;5.38;4.88;;;;;;;;;;5004496;28;20048;-69
2023/04/29 13:49:39;;;;;;;5.75;5.32;;;;;;;;;;4997864;28;20664;-69
2023/04/29 13:52:06;;;;;;;5.78;5.30;;;;;;;;;;4997084;28;20030;-70
2023/04/29 13:54:32;;;;;;;5.80;5.30;;;;;;;;;;5001171;28;20041;-69
2023/04/29 13:56:58;;;;;;;5.82;5.38;;;;;;;;;;4998083;28;20455;-71
2023/04/29 13:59:24;;;;;;;6.60;6.03;;;;;;;;;;4999115;28;20033;-69
2023/04/29 14:01:50;;;;;;;6.25;5.70;;;;;;;;;;4997354;28;20045;-71
2023/04/29 14:04:16;;;;;;;6.63;6.03;;;;;;;;;;4999262;28;20045;-71
2023/04/29 14:06:42;;;;;;;5.60;5.20;;;;;;;;;;5000209;28;20493;-71
2023/04/29 14:09:08;;;;;;;9.35;6.57;;;;;;;;;;4999078;28;20037;-69
2023/04/29 14:11:35;;;;;;;6.75;6.10;;;;;;;;;;4999011;28;20058;-71
2023/04/29 14:14:02;;;;;;;7.88;6.13;;;;;;;;;;4998249;28;20528;-70
2023/04/29 14:16:28;;;;;;;6.75;5.50;;;;;;;;;;4998130;28;20061;-69
2023/04/29 14:18:54;;;;;;;6.10;5.60;;;;;;;;;;4976534;28;20041;-71
2023/04/29 14:21:22;;;;;;;7.78;6.20;;;;;;;;;;4998869;28;20137;-70
2023/04/29 14:23:51;;;;;;;6.00;5.50;;;;;;;;;;4997979;28;20038;-69
2023/04/29 14:26:16;;;;;;;6.60;6.10;;;;;;;;;;4997582;28;20297;-69
2023/04/29 14:28:42;;;;;;;6.35;5.22;;;;;;;;;;4997229;28;20133;-70
2023/04/29 14:31:07;;;;;;;6.45;5.95;;;;;;;;;;4998707;28;20132;-68
2023/04/29 14:33:33;;;;;;;5.95;5.45;;;;;;;;;;4998366;28;20053;-69
2023/04/29 14:35:59;;;;;;;6.57;6.07;;;;;;;;;;4996013;28;20426;-69
2023/04/29 14:38:25;;;;;;;6.15;5.65;;;;;;;;;;4994067;28;20030;-68
2023/04/29 14:40:51;;;;;;;6.50;5.90;;;;;;;;;;4999972;28;20500;-69
2023/04/29 14:43:17;;;;;;;6.70;6.05;;;;;;;;;;4998314;28;20137;-68
2023/04/29 14:45:44;;;;;;;7.10;5.93;;;;;;;;;;4996947;28;20037;-70
2023/04/29 14:48:10;;;;;;;6.88;6.28;;;;;;;;;;4999118;28;20042;-68
2023/04/29 14:50:35;;;;;;;6.00;5.25;;;;;;;;;;4998255;28;20641;-68